
Distance (Route):
Temperature : -46.2°C
Humidity : 18.4%
Pressure : 0hPa| Receiver | Date | Latitude | Longitude | Direction | Speed | Altitude | Climb | Temperature | Humidity | Pressure | Voltage | Killtimer | Uptime | BKT | XDATA |
|---|---|---|---|---|---|---|---|---|---|---|---|---|---|---|---|
| LZ4TU-5 | 2026-09-03 06:49:39 | 43.05844 | 20.37647 | 153° | 93km/h | 10787m | -19.3m/s | -46.2°C | 18.4% | 0hPa | 0V | 00:00:00 | 00:00:00 | 00:00:00 | |
| LZ4TU-5 | 2026-09-03 06:49:26 | 43.06116 | 20.37447 | 154° | 95km/h | 11039m | -19.7m/s | -47.7°C | 17.7% | 0hPa | 0V | 00:00:00 | 00:00:00 | 00:00:00 | |
| LZ4TU-5 | 2026-09-03 06:49:21 | 43.06222 | 20.37376 | 156° | 91km/h | 11142m | -20.0m/s | -48.5°C | 0% | 0hPa | 0V | 00:00:00 | 00:00:00 | 00:00:00 | |
| LZ4TU-5 | 2026-09-03 06:49:15 | 43.06343 | 20.37296 | 155° | 88km/h | 11267m | -19.8m/s | -49.4°C | 15.3% | 0hPa | 0V | 00:00:00 | 00:00:00 | 00:00:00 | |
| LZ4TU-5 | 2026-09-03 06:47:14 | 43.07531 | 20.35166 | 94° | 47km/h | 13955m | -24.1m/s | -53.8°C | 0.1% | 0hPa | 0V | 00:00:00 | 00:00:00 | 00:00:00 | |
| LZ4TU-5 | 2026-09-03 06:47:09 | 43.07532 | 20.35078 | 90° | 55km/h | 14072m | -23.8m/s | -54.5°C | 0.0% | 0hPa | 0V | 00:00:00 | 00:00:00 | 00:00:00 | |
| LZ4TU-5 | 2026-09-03 06:43:00 | 43.07957 | 20.32121 | 182° | 20km/h | 22086m | -39.5m/s | -51.7°C | 0.0% | 0hPa | 0V | 00:00:00 | 00:00:00 | 00:00:00 | |
| LZ4TU-5 | 2026-09-03 06:42:55 | 43.07974 | 20.32121 | 200° | 5km/h | 22283m | -41.2m/s | -50.9°C | 0.0% | 0hPa | 0V | 00:00:00 | 00:00:00 | 00:00:00 | |
| LZ4TU-5 | 2026-09-03 06:42:46 | 43.07984 | 20.32130 | 231° | 7km/h | 22651m | -40.3m/s | -50.4°C | 0.0% | 0hPa | 0V | 00:00:00 | 00:00:00 | 00:00:00 | |
| LZ4TU-5 | 2026-09-03 06:40:36 | 43.07995 | 20.32523 | 271° | 7km/h | 28983m | -57.8m/s | -42.0°C | 0.8% | 0hPa | 0V | 00:00:00 | 00:00:00 | 00:00:00 | |
| LZ4TU-5 | 2026-09-03 06:40:32 | 43.07995 | 20.32533 | 280° | 9km/h | 29221m | -61.9m/s | -41.9°C | 0.9% | 0hPa | 0V | 00:00:00 | 00:00:00 | 00:00:00 | |
| OM5KV | 2026-09-03 06:38:00 | 43.07862 | 20.32932 | 316° | 22km/h | 30599m | 6.6m/s | -39.9°C | 1.2% | 0hPa | 0V | 00:00:00 | 00:00:00 | 00:00:00 | |
| OM5KV | 2026-09-03 06:37:38 | 43.07815 | 20.32954 | 212° | 18km/h | 30444m | 4.4m/s | -40.5°C | 1.2% | 0hPa | 0V | 00:00:00 | 00:00:00 | 00:00:00 | |
| OM5KV | 2026-09-03 06:37:23 | 43.07785 | 20.32992 | 346° | 13km/h | 30335m | 8.0m/s | -40.5°C | 1.2% | 0hPa | 0V | 00:00:00 | 00:00:00 | 00:00:00 | |
| LZ4TU-5 | 2026-09-03 06:37:16 | 43.07754 | 20.33017 | 263° | 29km/h | 30281m | 8.8m/s | -40.4°C | 1.1% | 0hPa | 0V | 00:00:00 | 00:00:00 | 00:00:00 | |
| LZ4TU-5 | 2026-09-03 06:37:11 | 43.07751 | 20.33055 | 326° | 11km/h | 30247m | 6.9m/s | -40.5°C | 1.1% | 0hPa | 0V | 00:00:00 | 00:00:00 | 00:00:00 | |
| OM5KV | 2026-09-03 06:37:09 | 43.07743 | 20.33058 | 351° | 22km/h | 30233m | 6.7m/s | -40.4°C | 1.1% | 0hPa | 0V | 00:00:00 | 00:00:00 | 00:00:00 | |
| OM5KV | 2026-09-03 06:37:08 | 43.07737 | 20.33060 | 332° | 29km/h | 30227m | 6.5m/s | -40.4°C | 1.1% | 0hPa | 0V | 00:00:00 | 00:00:00 | 00:00:00 | |
| OM5KV | 2026-09-03 06:37:02 | 43.07739 | 20.33120 | 228° | 18km/h | 30185m | 5.9m/s | -40.5°C | 1.1% | 0hPa | 0V | 00:00:00 | 00:00:00 | 00:00:00 | |
| OM5KV | 2026-09-03 06:36:46 | 43.07714 | 20.33201 | 351° | 20km/h | 30074m | 5.8m/s | -39.9°C | 0.9% | 0hPa | 0V | 00:00:00 | 00:00:00 | 00:00:00 | |
| OM5KV | 2026-09-03 06:36:40 | 43.07723 | 20.33271 | 253° | 37km/h | 30026m | 5.6m/s | -39.9°C | 0.8% | 0hPa | 0V | 00:00:00 | 00:00:00 | 00:00:00 | |
| OM5KV | 2026-09-03 06:36:34 | 43.07727 | 20.33292 | 331° | 13km/h | 29981m | 8.2m/s | -39.9°C | 0.8% | 0hPa | 0V | 00:00:00 | 00:00:00 | 00:00:00 | |
| LZ4TU-5 | 2026-09-03 06:27:04 | 43.07361 | 20.35930 | 180° | 27km/h | 26043m | 8.0m/s | -46.7°C | 1.0% | 0hPa | 0V | 00:00:00 | 00:00:00 | 00:00:00 | |
| LZ4TU-5 | 2026-09-03 06:27:00 | 43.07385 | 20.35930 | 192° | 29km/h | 26015m | 6.8m/s | -46.6°C | 0.9% | 0hPa | 0V | 00:00:00 | 00:00:00 | 00:00:00 | |
| LZ4TU-5 | 2026-09-03 06:24:41 | 43.07701 | 20.35740 | 177° | 16km/h | 25073m | 7.5m/s | -49.6°C | 0.8% | 0hPa | 0V | 00:00:00 | 00:00:00 | 00:00:00 | |
| LZ4TU-5 | 2026-09-03 06:24:36 | 43.07710 | 20.35756 | 311° | 16km/h | 25038m | 6.9m/s | -49.7°C | 0.8% | 0hPa | 0V | 00:00:00 | 00:00:00 | 00:00:00 | |
| LZ4TU-5 | 2026-09-03 06:20:19 | 43.08028 | 20.36702 | 221° | 11km/h | 23391m | 7.3m/s | -51.4°C | 0.9% | 0hPa | 0V | 00:00:00 | 00:00:00 | 00:00:00 | |
| LZ4TU-5 | 2026-09-03 06:20:14 | 43.08056 | 20.36703 | 161° | 26km/h | 23360m | 5.1m/s | -51.5°C | 0.9% | 0hPa | 0V | 00:00:00 | 00:00:00 | 00:00:00 | |
| LZ4TU-5 | 2026-09-03 06:18:17 | 43.08228 | 20.36884 | 317° | 5km/h | 22626m | 6.0m/s | -51.1°C | 0.6% | 0hPa | 0V | 00:00:00 | 00:00:00 | 00:00:00 | |
| LZ4TU-5 | 2026-09-03 06:18:12 | 43.08237 | 20.36900 | 215° | 16km/h | 22598m | 3.6m/s | -51.2°C | 0.6% | 0hPa | 0V | 00:00:00 | 00:00:00 | 00:00:00 | |
| LZ4TU-5 | 2026-09-03 06:16:31 | 43.08545 | 20.36839 | 104° | 24km/h | 21986m | 6.5m/s | -54.4°C | 0.6% | 0hPa | 0V | 00:00:00 | 00:00:00 | 00:00:00 | |
| LZ4TU-5 | 2026-09-03 06:16:26 | 43.08550 | 20.36819 | 87° | 4km/h | 21956m | 6.4m/s | -54.5°C | 0.6% | 0hPa | 0V | 00:00:00 | 00:00:00 | 00:00:00 | |
| LZ4TU-5 | 2026-09-03 06:14:55 | 43.08662 | 20.36611 | 149° | 9km/h | 21401m | 5.3m/s | -54.3°C | 0.5% | 0hPa | 0V | 00:00:00 | 00:00:00 | 00:00:00 | |
| LZ4TU-5 | 2026-09-03 06:14:50 | 43.08671 | 20.36595 | 79° | 18km/h | 21369m | 6.3m/s | -54.1°C | 0.4% | 0hPa | 0V | 00:00:00 | 00:00:00 | 00:00:00 | |
| LZ4TU-5 | 2026-09-03 06:13:07 | 43.08549 | 20.36261 | 146° | 13km/h | 20768m | 6.8m/s | -55.6°C | 0.5% | 0hPa | 0V | 00:00:00 | 00:00:00 | 00:00:00 | |
| LZ4TU-5 | 2026-09-03 06:13:03 | 43.08559 | 20.36262 | 167° | 4km/h | 20746m | 5.0m/s | -55.6°C | 0.6% | 0hPa | 0V | 00:00:00 | 00:00:00 | 00:00:00 | |
| LZ4TU-5 | 2026-09-03 06:11:19 | 43.08380 | 20.35893 | 36° | 7km/h | 20137m | 6.1m/s | -54.9°C | 0.8% | 0hPa | 0V | 00:00:00 | 00:00:00 | 00:00:00 | |
| LZ4TU-5 | 2026-09-03 06:11:14 | 43.08377 | 20.35886 | 323° | 7km/h | 20107m | 6.1m/s | -55.0°C | 0.8% | 0hPa | 0V | 00:00:00 | 00:00:00 | 00:00:00 | |
| LZ4TU-5 | 2026-09-03 06:09:07 | 43.08851 | 20.35712 | 59° | 13km/h | 19368m | 3.8m/s | -54.3°C | 0.2% | 0hPa | 0V | 00:00:00 | 00:00:00 | 00:00:00 | |
| LZ4TU-5 | 2026-09-03 06:09:03 | 43.08858 | 20.35699 | 138° | 27km/h | 19343m | 7.6m/s | -54.5°C | 0% | 0hPa | 0V | 00:00:00 | 00:00:00 | 00:00:00 | |
| LZ4TU-5 | 2026-09-03 06:06:30 | 43.09175 | 20.34538 | 144° | 37km/h | 18421m | 7.0m/s | -55.4°C | 1.0% | 0hPa | 0V | 00:00:00 | 00:00:00 | 00:00:00 | |
| LZ4TU-5 | 2026-09-03 06:06:26 | 43.09201 | 20.34502 | 139° | 35km/h | 18396m | 5.0m/s | -55.1°C | 0.9% | 0hPa | 0V | 00:00:00 | 00:00:00 | 00:00:00 | |
| LZ4TU-5 | 2026-09-03 05:51:03 | 43.10947 | 20.18394 | 137° | 66km/h | 13327m | 9.5m/s | -50.9°C | 5.0% | 0hPa | 0V | 00:00:00 | 00:00:00 | 00:00:00 | |
| LZ4TU-5 | 2026-09-03 05:50:59 | 43.10977 | 20.18321 | 116° | 68km/h | 13298m | 7.1m/s | -51.0°C | 5.1% | 0hPa | 0V | 00:00:00 | 00:00:00 | 00:00:00 | |
| LZ4TU-5 | 2026-09-03 05:48:30 | 43.12177 | 20.15141 | 123° | 58km/h | 12502m | 4.2m/s | -52.5°C | 10.4% | 0hPa | 0V | 00:00:00 | 00:00:00 | 00:00:00 | |
| LZ4TU-5 | 2026-09-03 05:48:26 | 43.12202 | 20.15073 | 114° | 57km/h | 12482m | 5.9m/s | -52.3°C | 10.4% | 0hPa | 0V | 00:00:00 | 00:00:00 | 00:00:00 | |
| LZ4TU-5 | 2026-09-03 05:46:28 | 43.13480 | 20.13399 | 146° | 69km/h | 11842m | 4.1m/s | -50.6°C | 13.3% | 0hPa | 0V | 00:00:00 | 00:00:00 | 00:00:00 | |
| LZ4TU-5 | 2026-09-03 05:46:24 | 43.13534 | 20.13343 | 138° | 69km/h | 11821m | 5.2m/s | -50.7°C | 13.5% | 0hPa | 0V | 00:00:00 | 00:00:00 | 00:00:00 | |
| LZ4TU-5 | 2026-09-03 05:46:18 | 43.13619 | 20.13251 | 150° | 71km/h | 11790m | 5.6m/s | -50.3°C | 13.5% | 0hPa | 0V | 00:00:00 | 00:00:00 | 00:00:00 |